Time;durP1;ratioP1;P1;durP2;ratioP2;P2;SDS_P1;SDS_P2;PMS_P1;PMS_P2;Temp;Humidity;BMP_temperature;BMP_pressure;BME280_temperature;BME280_humidity;BME280_pressure;Samples;Min_cycle;Max_cycle;Signal;HPM_P1;HPM_P2
2022/02/20 00:01:57;;;;;;;5.93;3.08;;;;;;;8.49;66.39;93204.44;5010471;28;20065;-84
2022/02/20 00:04:24;;;;;;;12.90;4.25;;;;;;;8.53;66.04;93208.22;5010513;28;20413;-84
2022/02/20 00:06:51;;;;;;;4.72;2.80;;;;;;;8.48;66.28;93205.41;5010466;28;20046;-84
2022/02/20 00:09:19;;;;;;;7.82;3.50;;;;;;;8.50;65.66;93201.69;5010256;28;20506;-84
2022/02/20 00:11:46;;;;;;;9.35;4.32;;;;;;;8.49;65.96;93189.06;5010399;28;20062;-84
2022/02/20 00:14:12;;;;;;;10.95;4.93;;;;;;;8.47;66.20;93193.59;5010556;28;20061;-84
2022/02/20 00:16:39;;;;;;;7.93;4.95;;;;;;;8.33;66.02;93165.44;5010001;28;20045;-84
2022/02/20 00:19:06;;;;;;;10.80;5.15;;;;;;;7.95;66.16;93110.50;5010324;28;20108;-84
2022/02/20 00:21:33;;;;;;;9.65;4.22;;;;;;;8.45;65.78;93187.88;5010287;28;20045;-84
2022/02/20 00:24:00;;;;;;;17.63;6.80;;;;;;;8.41;66.60;93185.72;5010284;28;20049;-84
2022/02/20 00:26:28;;;;;;;28.00;10.88;;;;;;;8.35;66.43;93186.50;5010322;28;20057;-84
2022/02/20 00:28:54;;;;;;;48.17;20.33;;;;;;;7.90;67.03;93197.25;5010581;28;20116;-84
2022/02/20 00:31:21;;;;;;;45.55;19.23;;;;;;;7.61;68.85;93196.59;5010344;28;20137;-84
2022/02/20 00:33:48;;;;;;;55.72;19.13;;;;;;;7.29;70.68;93189.38;5010088;28;20092;-85
2022/02/20 00:36:15;;;;;;;48.30;18.63;;;;;;;7.34;71.37;93204.94;5010065;28;20569;-84
2022/02/20 00:38:42;;;;;;;35.83;12.52;;;;;;;7.46;72.07;93202.63;5010078;28;20046;-84
2022/02/20 00:41:08;;;;;;;24.42;10.20;;;;;;;7.49;72.41;93197.13;5010169;28;20060;-84
2022/02/20 00:43:37;;;;;;;22.70;9.55;;;;;;;7.57;72.24;93198.75;5010292;28;20042;-84
2022/02/20 00:46:03;;;;;;;24.88;8.70;;;;;;;7.64;72.77;93205.66;5010134;28;20053;-84
2022/02/20 00:48:30;;;;;;;17.35;7.07;;;;;;;7.66;73.03;93194.25;5010139;28;20100;-84
2022/02/20 00:50:57;;;;;;;18.33;6.95;;;;;;;7.70;73.12;93194.66;5010062;28;20417;-84
2022/02/20 00:53:26;;;;;;;13.05;5.90;;;;;;;7.74;72.45;93188.19;5010315;28;20050;-84
2022/02/20 00:55:53;;;;;;;16.08;5.50;;;;;;;7.78;73.50;93183.47;5007557;28;20050;-84
2022/02/20 00:58:19;;;;;;;15.00;7.05;;;;;;;7.80;73.61;93192.53;5010007;28;20042;-84
2022/02/20 01:00:47;;;;;;;17.15;6.43;;;;;;;7.58;73.89;93168.84;5010228;28;20100;-84
2022/02/20 01:03:15;;;;;;;31.83;9.93;;;;;;;7.72;72.89;93208.03;5009856;28;20097;-84
2022/02/20 01:05:42;;;;;;;51.38;19.13;;;;;;;6.94;74.01;93213.16;5009905;28;20042;-83
2022/02/20 01:08:09;;;;;;;55.17;22.95;;;;;;;6.53;76.06;93208.75;5009994;28;20038;-83
2022/02/20 01:10:36;;;;;;;58.67;22.95;;;;;;;6.04;77.85;93183.03;5009894;28;20070;-84
2022/02/20 01:13:03;;;;;;;56.28;21.85;;;;;;;6.07;80.45;93197.94;5009986;28;20073;-83
2022/02/20 01:15:30;;;;;;;59.03;27.52;;;;;;;6.02;80.13;93187.50;5009780;28;20065;-84
2022/02/20 01:17:58;;;;;;;52.90;23.55;;;;;;;5.66;80.00;93181.44;5009840;28;20052;-84
2022/02/20 01:20:25;;;;;;;49.95;24.73;;;;;;;5.64;81.31;93218.28;5009765;28;20052;-84
2022/02/20 01:22:52;;;;;;;53.83;25.05;;;;;;;5.52;82.03;93223.03;5007287;28;20092;-84
2022/02/20 01:25:18;;;;;;;67.05;25.58;;;;;;;5.61;82.13;93222.75;5010056;28;20395;-84
2022/02/20 01:27:45;;;;;;;46.45;22.75;;;;;;;5.47;83.55;93216.69;5010149;28;20112;-84
2022/02/20 01:30:12;;;;;;;60.45;30.63;;;;;;;5.55;82.93;93208.16;5010335;28;20037;-84
2022/02/20 01:32:39;;;;;;;39.22;17.55;;;;;;;5.47;83.79;93206.50;5014059;28;20050;-84
2022/02/20 01:35:09;;;;;;;44.97;22.73;;;;;;;5.72;83.38;93203.66;5013932;28;20046;-84
2022/02/20 01:37:36;;;;;;;46.38;22.60;;;;;;;5.70;82.29;93197.94;5013660;28;20529;-84
2022/02/20 01:40:04;;;;;;;45.55;22.80;;;;;;;5.82;82.06;93198.28;5013499;28;20050;-84
2022/02/20 01:42:31;;;;;;;36.58;18.42;;;;;;;5.85;80.76;93203.03;5013478;28;20056;-84
2022/02/20 01:44:58;;;;;;;33.28;17.80;;;;;;;5.81;80.68;93208.66;5013542;28;20445;-84
2022/02/20 01:47:26;;;;;;;41.38;18.00;;;;;;;5.72;81.23;93197.78;5013454;28;20449;-84
2022/02/20 01:49:54;;;;;;;34.17;16.92;;;;;;;5.73;81.64;93201.88;5013367;28;20053;-84
2022/02/20 01:52:23;;;;;;;36.58;16.60;;;;;;;5.76;82.19;93196.44;5013494;28;20048;-84
2022/02/20 01:54:51;;;;;;;38.00;16.83;;;;;;;5.48;82.64;93174.19;5013475;28;20060;-84
2022/02/20 01:57:18;;;;;;;39.38;18.42;;;;;;;5.56;83.80;93183.50;5013244;28;20046;-84
2022/02/20 01:59:45;;;;;;;46.45;20.67;;;;;;;5.05;86.05;93149.41;5013134;28;20050;-84
2022/02/20 02:02:12;;;;;;;43.63;21.70;;;;;;;5.07;87.50;93167.81;5013087;28;20112;-84
2022/02/20 02:04:38;;;;;;;78.47;36.40;;;;;;;4.95;89.10;93163.19;5013049;28;20042;-84
2022/02/20 02:07:05;;;;;;;87.03;38.45;;;;;;;4.77;88.66;93115.16;5013062;28;20093;-84
2022/02/20 02:09:33;;;;;;;84.60;35.22;;;;;;;4.97;89.10;93157.91;5013633;28;20046;-84
2022/02/20 02:12:00;;;;;;;102.20;41.75;;;;;;;4.94;90.46;93156.50;5013041;28;20041;-84
2022/02/20 02:14:27;;;;;;;44.85;19.25;;;;;;;5.06;89.82;93154.28;5012822;28;20792;-84
2022/02/20 02:16:57;;;;;;;46.67;20.10;;;;;;;5.14;88.82;93155.19;5012906;28;20095;-84
2022/02/20 02:19:23;;;;;;;48.00;20.33;;;;;;;5.21;88.40;93145.88;5013021;28;20057;-84
2022/02/20 02:21:50;;;;;;;63.58;24.98;;;;;;;5.18;88.36;93141.91;5012880;28;20046;-84
2022/02/20 02:24:18;;;;;;;45.60;21.75;;;;;;;5.05;90.35;93137.44;5012722;28;20053;-84
2022/02/20 02:26:47;;;;;;;49.50;21.88;;;;;;;4.96;90.21;93141.06;5012648;28;20494;-84
2022/02/20 02:29:13;;;;;;;47.78;19.85;;;;;;;5.04;90.22;93151.16;5012723;28;20552;-84
2022/02/20 02:31:40;;;;;;;38.22;16.10;;;;;;;5.05;89.92;93140.00;5012830;28;20532;-84
2022/02/20 02:34:07;;;;;;;34.85;15.48;;;;;;;4.99;89.61;93145.78;5012588;28;20050;-84
2022/02/20 02:36:34;;;;;;;37.00;15.20;;;;;;;5.03;90.22;93138.59;5012660;28;20096;-84
2022/02/20 02:39:01;;;;;;;26.90;14.13;;;;;;;5.18;88.55;93129.19;5012135;28;20058;-84
2022/02/20 02:41:29;;;;;;;28.58;14.07;;;;;;;5.25;88.25;93108.09;5012322;28;20437;-84
2022/02/20 02:43:56;;;;;;;32.25;14.60;;;;;;;5.53;87.36;93118.41;5012401;28;20486;-84
2022/02/20 02:46:22;;;;;;;31.25;14.60;;;;;;;5.62;86.48;93119.84;5012500;28;20438;-84
2022/02/20 02:48:49;;;;;;;33.20;14.40;;;;;;;5.66;86.57;93124.59;5012391;28;20058;-84
2022/02/20 02:51:17;;;;;;;32.28;13.60;;;;;;;5.40;87.53;93126.69;5012397;28;20052;-84
2022/02/20 02:53:44;;;;;;;27.02;12.45;;;;;;;5.26;89.22;93138.47;5012747;28;20052;-84
2022/02/20 02:56:11;;;;;;;27.05;13.77;;;;;;;5.22;89.87;93130.41;5012116;28;20053;-84
2022/02/20 02:58:39;;;;;;;26.70;13.20;;;;;;;5.05;90.51;93117.06;5012119;28;20092;-84
2022/02/20 03:01:06;;;;;;;25.67;13.35;;;;;;;5.03;90.84;93106.28;5012165;28;20493;-84
2022/02/20 03:03:33;;;;;;;29.98;13.45;;;;;;;5.19;90.59;93117.25;5012084;28;20104;-84
2022/02/20 03:06:00;;;;;;;26.10;13.38;;;;;;;5.22;90.32;93119.44;5012042;28;20046;-84
2022/02/20 03:08:27;;;;;;;25.45;13.52;;;;;;;5.17;90.42;93132.69;5011865;28;20053;-84
2022/02/20 03:10:56;;;;;;;27.55;12.43;;;;;;;5.20;89.69;93137.41;5012466;28;20417;-84
2022/02/20 03:13:23;;;;;;;23.90;13.38;;;;;;;5.34;89.95;93125.63;5011810;28;20049;-85
2022/02/20 03:15:52;;;;;;;27.77;13.70;;;;;;;5.37;89.13;93119.38;5011842;28;20054;-84
2022/02/20 03:18:18;;;;;;;43.08;23.65;;;;;;;5.43;88.87;93118.69;5011891;28;20414;-84
2022/02/20 03:20:45;;;;;;;32.40;16.20;;;;;;;5.50;87.94;93111.09;5011713;28;20097;-84
2022/02/20 03:23:12;;;;;;;33.65;16.55;;;;;;;5.57;87.90;93108.63;5011681;28;20054;-84
2022/02/20 03:25:39;;;;;;;33.35;16.95;;;;;;;5.63;87.99;93110.44;5011927;28;20054;-84
2022/02/20 03:28:06;;;;;;;39.22;16.92;;;;;;;5.61;87.56;93110.63;5011791;28;20092;-84
2022/02/20 03:30:33;;;;;;;38.22;18.27;;;;;;;5.67;87.32;93123.63;5011574;28;20505;-84
2022/02/20 03:33:01;;;;;;;30.98;16.25;;;;;;;5.79;85.58;93118.84;5009913;28;20495;-84
2022/02/20 03:35:28;;;;;;;35.20;16.02;;;;;;;5.84;85.13;93121.63;5011069;28;20050;-85
2022/02/20 03:37:54;;;;;;;40.90;17.27;;;;;;;5.99;84.01;93139.41;5011490;28;20061;-84
2022/02/20 03:40:21;;;;;;;32.88;16.60;;;;;;;5.88;85.66;93118.53;5011596;28;20045;-84
2022/02/20 03:42:49;;;;;;;30.40;14.02;;;;;;;5.74;86.58;93104.09;5011415;28;20072;-84
2022/02/20 03:45:16;;;;;;;29.98;12.98;;;;;;;5.59;86.76;93114.31;5011459;28;20069;-84
2022/02/20 03:47:43;;;;;;;26.33;14.00;;;;;;;5.55;86.60;93146.25;5011423;28;20049;-83
2022/02/20 03:50:12;;;;;;;30.85;15.85;;;;;;;5.48;87.02;93159.69;5011156;28;20556;-84
2022/02/20 03:52:40;;;;;;;26.30;13.48;;;;;;;5.31;88.09;93163.41;5010522;28;20050;-84
2022/02/20 03:55:09;;;;;;;22.75;12.43;;;;;;;5.13;90.12;93169.66;5011242;28;20056;-84
2022/02/20 03:57:36;;;;;;;23.00;14.27;;;;;;;4.95;91.67;93175.91;5011297;28;20057;-84
2022/02/20 04:00:06;;;;;;;24.95;14.20;;;;;;;5.19;89.66;93179.13;5011186;28;20632;-83
2022/02/20 04:02:34;;;;;;;22.70;13.55;;;;;;;5.10;90.28;93177.66;5011104;28;20069;-84
2022/02/20 04:05:01;;;;;;;20.30;10.40;;;;;;;5.01;91.87;93187.16;5010846;28;20045;-83
2022/02/20 04:07:29;;;;;;;18.20;10.18;;;;;;;4.57;91.80;93144.66;5011128;28;20493;-84
2022/02/20 04:09:56;;;;;;;19.52;9.70;;;;;;;4.74;92.16;93163.88;5011153;28;20092;-85
2022/02/20 04:12:22;;;;;;;18.90;10.25;;;;;;;4.90;92.81;93192.66;5011112;28;20046;-84
2022/02/20 04:14:49;;;;;;;24.33;11.80;;;;;;;4.97;92.48;93200.38;5010954;28;20181;-84
2022/02/20 04:17:17;;;;;;;25.05;12.10;;;;;;;5.05;91.66;93207.97;5010825;28;20045;-84
2022/02/20 04:19:44;;;;;;;21.45;11.40;;;;;;;5.21;90.30;93217.16;5010936;28;20045;-84
2022/02/20 04:22:10;;;;;;;23.08;12.57;;;;;;;5.36;88.63;93227.34;5011027;28;20080;-84
2022/02/20 04:24:39;;;;;;;23.45;12.02;;;;;;;5.31;87.31;93197.31;5011081;28;20042;-84
2022/02/20 04:27:05;;;;;;;23.05;12.75;;;;;;;5.50;86.68;93219.88;5010980;28;20498;-84
2022/02/20 04:29:32;;;;;;;20.15;11.27;;;;;;;5.54;86.29;93226.97;5010802;28;20057;-84
2022/02/20 04:32:00;;;;;;;20.20;10.48;;;;;;;5.54;86.40;93221.88;5010715;28;20046;-84
2022/02/20 04:34:26;;;;;;;22.98;9.70;;;;;;;5.60;85.66;93231.38;5011025;28;20050;-84
2022/02/20 04:36:53;;;;;;;19.50;10.02;;;;;;;5.65;84.86;93238.47;5010955;28;20065;-84
2022/02/20 04:39:20;;;;;;;24.95;11.73;;;;;;;5.64;84.67;93238.66;5010818;28;20049;-84
2022/02/20 04:41:49;;;;;;;24.70;9.63;;;;;;;5.63;84.69;93240.41;5010844;28;20407;-84
2022/02/20 04:44:16;;;;;;;20.27;10.25;;;;;;;5.68;84.80;93243.22;5010470;28;20494;-85
2022/02/20 04:46:42;;;;;;;22.30;10.50;;;;;;;5.80;83.58;93241.00;5010504;28;20569;-85
2022/02/20 04:49:09;;;;;;;19.38;10.20;;;;;;;5.85;83.47;93238.72;5010776;28;20097;-85
2022/02/20 04:51:37;;;;;;;18.83;10.35;;;;;;;5.50;83.09;93174.78;5010549;28;20046;-84
2022/02/20 04:54:04;;;;;;;23.48;10.73;;;;;;;5.93;82.71;93237.78;5010654;28;20508;-84
2022/02/20 04:56:31;;;;;;;17.35;10.85;;;;;;;5.93;83.16;93232.69;5010446;28;20046;-85
2022/02/20 04:59:00;;;;;;;23.33;10.05;;;;;;;5.93;83.68;93232.69;5010492;28;20049;-84
2022/02/20 05:01:27;;;;;;;22.77;10.85;;;;;;;5.93;83.53;93237.00;5010218;28;20053;-84
2022/02/20 05:03:54;;;;;;;25.63;10.73;;;;;;;5.81;85.00;93229.84;5013029;28;20513;-84
2022/02/20 05:06:27;;;;;;;22.00;12.05;;;;;;;5.80;85.09;93218.06;5014094;28;20514;-85
2022/02/20 05:08:54;;;;;;;22.55;10.57;;;;;;;5.87;83.88;93213.03;5014269;28;20057;-84
2022/02/20 05:11:23;;;;;;;30.45;11.10;;;;;;;5.95;83.08;93215.47;5013217;28;20049;-84
2022/02/20 05:13:50;;;;;;;28.10;10.45;;;;;;;5.94;83.57;93221.53;5013559;28;20050;-84
2022/02/20 05:16:18;;;;;;;26.25;11.07;;;;;;;6.00;82.56;93237.88;5013722;28;20092;-84
2022/02/20 05:18:45;;;;;;;47.13;21.27;;;;;;;6.02;82.92;93241.03;5013489;28;20042;-84
2022/02/20 05:21:12;;;;;;;46.15;20.30;;;;;;;5.99;83.79;93243.94;5014159;28;20053;-84
2022/02/20 05:23:38;;;;;;;37.55;16.95;;;;;;;6.00;82.97;93248.06;5008051;28;20053;-84
2022/02/20 05:26:05;;;;;;;29.33;14.18;;;;;;;5.99;82.79;93247.28;5013651;28;20057;-84
2022/02/20 05:28:32;;;;;;;29.40;13.30;;;;;;;5.90;83.41;93233.06;5013701;28;20104;-85
2022/02/20 05:30:59;;;;;;;28.20;12.60;;;;;;;5.98;83.49;93250.03;5013911;28;20045;-85
2022/02/20 05:33:27;;;;;;;26.58;12.48;;;;;;;5.67;83.20;93211.06;5013635;28;20053;-84
2022/02/20 05:35:54;;;;;;;26.58;14.23;;;;;;;5.96;82.84;93260.38;5013810;28;20096;-84
2022/02/20 05:38:20;;;;;;;27.38;12.88;;;;;;;5.97;83.10;93248.44;5013642;28;20058;-85
2022/02/20 05:40:47;;;;;;;26.15;13.07;;;;;;;5.96;83.50;93265.50;5013693;28;20053;-84
2022/02/20 05:43:14;;;;;;;27.70;13.52;;;;;;;5.98;83.85;93265.31;5013789;28;20049;-84
2022/02/20 05:45:41;;;;;;;28.80;13.93;;;;;;;5.76;86.68;93265.28;5013709;28;20059;-85
2022/02/20 05:48:08;;;;;;;28.23;15.77;;;;;;;5.63;88.17;93265.91;5013471;28;20046;-85
2022/02/20 05:50:36;;;;;;;31.42;17.13;;;;;;;5.50;88.18;93266.50;5013509;28;20425;-84
2022/02/20 05:53:03;;;;;;;42.28;25.55;;;;;;;5.50;87.85;93263.97;5013302;28;20045;-85
2022/02/20 05:55:29;;;;;;;36.92;19.20;;;;;;;5.45;89.82;93264.50;5013523;28;20494;-84
2022/02/20 05:57:57;;;;;;;35.15;18.08;;;;;;;5.55;89.85;93261.69;5013215;28;20089;-84
2022/02/20 06:00:26;;;;;;;36.72;18.40;;;;;;;5.63;88.06;93263.34;5013245;28;20061;-84
2022/02/20 06:02:53;;;;;;;46.50;19.88;;;;;;;5.68;87.68;93265.34;5012736;28;20065;-85
2022/02/20 06:05:20;;;;;;;38.97;21.33;;;;;;;5.54;89.14;93247.38;5012985;28;20049;-85
2022/02/20 06:07:48;;;;;;;38.95;20.80;;;;;;;5.77;87.17;93249.00;5013052;28;21609;-85
2022/02/20 06:10:16;;;;;;;38.63;19.98;;;;;;;5.81;86.60;93234.13;5013030;28;20375;-84
2022/02/20 06:12:42;;;;;;;48.83;25.25;;;;;;;5.81;86.21;93212.00;5013188;28;20058;-84
2022/02/20 06:15:10;;;;;;;39.70;22.50;;;;;;;6.01;85.26;93240.25;5012204;28;20049;-85
2022/02/20 06:17:37;;;;;;;40.42;21.95;;;;;;;6.04;85.20;93244.22;5012819;28;20096;-85
2022/02/20 06:20:05;;;;;;;47.28;23.38;;;;;;;6.07;84.89;93248.19;5012869;28;20058;-85
2022/02/20 06:22:32;;;;;;;52.63;25.60;;;;;;;6.12;84.57;93245.88;5013003;28;20049;-84
2022/02/20 06:25:00;;;;;;;48.00;23.80;;;;;;;6.12;84.51;93241.53;5012755;28;20088;-84
2022/02/20 06:27:27;;;;;;;37.65;21.75;;;;;;;6.19;83.47;93240.81;5012845;28;20092;-84
2022/02/20 06:29:54;;;;;;;38.05;20.83;;;;;;;6.20;83.20;93240.66;5012674;28;20054;-85
2022/02/20 06:32:20;;;;;;;39.85;20.65;;;;;;;6.25;83.58;93253.66;5012376;28;20050;-84
2022/02/20 06:34:47;;;;;;;40.75;22.58;;;;;;;6.25;83.49;93258.75;5012623;28;20112;-84
2022/02/20 06:37:14;;;;;;;54.92;27.98;;;;;;;6.30;83.60;93262.53;5012513;28;20054;-84
2022/02/20 06:39:44;;;;;;;64.18;33.00;;;;;;;6.27;84.25;93263.69;5012689;28;20053;-85
2022/02/20 06:42:13;;;;;;;59.25;30.80;;;;;;;6.17;85.08;93251.22;5012604;28;20058;-84
2022/02/20 06:44:40;;;;;;;48.80;26.77;;;;;;;6.20;86.00;93250.84;5012494;28;20455;-85
2022/02/20 06:47:07;;;;;;;49.15;26.10;;;;;;;6.12;86.45;93256.06;5012373;28;20057;-85
2022/02/20 06:49:34;;;;;;;59.42;31.00;;;;;;;6.20;85.52;93267.94;5012572;28;20050;-84
2022/02/20 06:52:01;;;;;;;48.38;29.63;;;;;;;6.28;84.66;93267.81;5012543;28;20053;-84
2022/02/20 06:54:28;;;;;;;58.42;31.35;;;;;;;6.28;84.53;93262.69;5010576;28;20046;-84
2022/02/20 06:56:56;;;;;;;53.35;31.50;;;;;;;6.22;85.19;93253.22;5012324;28;20054;-84
2022/02/20 06:59:24;;;;;;;60.45;34.03;;;;;;;6.34;85.39;93273.94;5012213;28;20068;-85
2022/02/20 07:01:51;;;;;;;53.72;30.77;;;;;;;6.53;83.32;93270.78;5012067;28;20057;-85
2022/02/20 07:04:19;;;;;;;56.08;30.90;;;;;;;6.64;82.66;93282.28;5012181;28;20108;-84
2022/02/20 07:06:46;;;;;;;54.08;28.25;;;;;;;6.64;82.46;93274.63;5012156;28;20046;-85
2022/02/20 07:09:14;;;;;;;47.17;22.88;;;;;;;6.75;83.79;93280.22;5012040;28;20053;-85
2022/02/20 07:11:42;;;;;;;38.88;22.20;;;;;;;6.68;84.15;93269.94;5011926;28;20120;-85
2022/02/20 07:14:09;;;;;;;52.88;28.17;;;;;;;6.59;85.74;93276.13;5011955;28;20045;-84
2022/02/20 07:16:38;;;;;;;53.40;29.05;;;;;;;6.28;87.53;93270.34;5012030;28;20056;-84
2022/02/20 07:19:04;;;;;;;51.88;25.90;;;;;;;6.47;85.18;93252.88;5011830;28;20061;-84
2022/02/20 07:21:31;;;;;;;46.17;24.33;;;;;;;6.65;83.69;93253.22;5012291;28;20184;-84
2022/02/20 07:23:59;;;;;;;53.42;26.00;;;;;;;6.78;83.55;93236.41;5011715;28;20054;-84
2022/02/20 07:26:29;;;;;;;55.30;27.67;;;;;;;6.85;82.85;93231.38;5011688;28;20568;-84
2022/02/20 07:28:56;;;;;;;57.20;28.73;;;;;;;6.91;82.05;93217.84;5011461;28;20058;-84
2022/02/20 07:31:23;;;;;;;51.13;26.17;;;;;;;7.06;81.84;93231.31;5011702;28;20042;-84
2022/02/20 07:33:54;;;;;;;43.75;22.60;;;;;;;7.13;80.97;93220.34;5011752;28;20426;-84
2022/02/20 07:36:21;;;;;;;34.50;16.85;;;;;;;7.30;79.48;93228.47;5011633;28;20050;-84
2022/02/20 07:38:48;;;;;;;34.78;15.43;;;;;;;7.41;78.64;93235.63;5011578;28;20049;-84
2022/02/20 07:41:15;;;;;;;43.45;23.38;;;;;;;7.57;78.32;93244.75;5011359;28;20046;-85
2022/02/20 07:43:44;;;;;;;32.13;16.52;;;;;;;7.67;77.13;93239.28;5011343;28;20469;-84
2022/02/20 07:46:10;;;;;;;41.67;20.92;;;;;;;7.82;76.60;93230.69;5011446;28;20049;-84
2022/02/20 07:48:39;;;;;;;42.65;21.05;;;;;;;7.96;75.68;93236.63;5011305;28;20502;-84
2022/02/20 07:51:07;;;;;;;221.00;106.05;;;;;;;8.06;76.01;93228.59;5011151;28;20521;-84
2022/02/20 07:53:34;;;;;;;148.63;79.35;;;;;;;8.14;75.64;93228.41;5011262;28;20038;-84
2022/02/20 07:56:01;;;;;;;78.85;44.97;;;;;;;8.24;74.92;93228.03;5011098;28;20145;-85
2022/02/20 07:58:28;;;;;;;68.50;37.38;;;;;;;8.34;75.04;93230.97;5011133;28;20057;-85
2022/02/20 08:00:55;;;;;;;57.20;33.35;;;;;;;8.43;74.22;93241.84;5011010;28;20108;-84
2022/02/20 08:03:22;;;;;;;57.72;28.13;;;;;;;8.52;74.63;93235.56;5011007;28;20065;-85
2022/02/20 08:05:48;;;;;;;52.67;25.73;;;;;;;8.62;73.94;93221.59;5011190;28;20103;-84
2022/02/20 08:08:18;;;;;;;58.70;30.83;;;;;;;8.75;72.99;93226.72;5010979;28;20054;-85
2022/02/20 08:10:44;;;;;;;44.42;25.70;;;;;;;8.79;73.40;93232.22;5010985;28;20112;-84
2022/02/20 08:13:11;;;;;;;43.25;23.40;;;;;;;8.95;71.92;93225.91;5011161;28;20108;-85
2022/02/20 08:15:38;;;;;;;36.40;20.40;;;;;;;9.08;70.24;93215.66;5009523;28;20457;-84
2022/02/20 08:18:05;;;;;;;34.80;18.42;;;;;;;9.18;69.22;93222.94;5010824;28;20072;-84
2022/02/20 08:20:32;;;;;;;54.03;25.98;;;;;;;9.23;68.80;93212.84;5010942;28;20050;-85
2022/02/20 08:22:59;;;;;;;37.50;20.02;;;;;;;9.25;67.82;93199.84;5010872;28;20050;-84
2022/02/20 08:25:27;;;;;;;34.97;16.25;;;;;;;9.44;66.75;93215.38;5010875;28;20058;-85
2022/02/20 08:27:55;;;;;;;28.65;14.95;;;;;;;9.47;64.83;93217.53;5010848;28;20413;-84
2022/02/20 08:30:22;;;;;;;35.05;18.38;;;;;;;9.65;64.85;93223.78;5011098;28;20050;-84
2022/02/20 08:32:49;;;;;;;30.00;14.75;;;;;;;9.57;63.57;93196.56;5010780;28;20042;-84
2022/02/20 08:35:16;;;;;;;28.45;13.73;;;;;;;9.71;61.99;93212.69;5010790;28;20049;-84
2022/02/20 08:37:46;;;;;;;27.02;12.90;;;;;;;9.80;62.69;93210.69;5011723;28;20057;-84
2022/02/20 08:40:14;;;;;;;31.92;13.85;;;;;;;9.87;62.88;93199.41;5015048;28;20476;-84
2022/02/20 08:42:43;;;;;;;26.30;12.02;;;;;;;9.96;62.48;93191.47;5014861;28;20068;-84
2022/02/20 08:45:11;;;;;;;33.15;15.68;;;;;;;10.13;61.67;93195.13;5014515;28;20061;-84
2022/02/20 08:47:38;;;;;;;37.55;16.23;;;;;;;10.33;61.12;93201.13;5014731;28;20065;-84
2022/02/20 08:50:09;;;;;;;30.48;14.23;;;;;;;10.40;61.34;93196.72;5014518;28;20498;-85
2022/02/20 08:52:36;;;;;;;37.10;18.58;;;;;;;10.53;60.50;93195.88;5014640;28;20401;-85
2022/02/20 08:55:03;;;;;;;47.97;19.08;;;;;;;10.54;61.11;93174.34;5014628;28;20046;-84
2022/02/20 08:57:30;;;;;;;41.25;20.10;;;;;;;10.76;60.28;93191.94;5014354;28;20521;-84
2022/02/20 08:59:59;;;;;;;32.22;14.68;;;;;;;10.83;60.20;93188.31;5014530;28;20049;-84
2022/02/20 09:02:26;;;;;;;42.13;19.67;;;;;;;10.87;60.45;93175.84;5014552;28;20093;-85
2022/02/20 09:04:53;;;;;;;53.60;25.65;;;;;;;11.00;59.97;93174.13;5014234;28;20058;-84
2022/02/20 09:07:20;;;;;;;25.77;12.48;;;;;;;11.14;59.46;93177.34;5014342;28;20406;-84
2022/02/20 09:09:47;;;;;;;29.23;12.43;;;;;;;11.20;58.60;93163.66;5014288;28;20498;-85
2022/02/20 09:12:14;;;;;;;35.63;16.13;;;;;;;11.25;58.67;93150.94;5014693;28;20053;-84
2022/02/20 09:14:41;;;;;;;48.63;22.10;;;;;;;11.52;57.72;93162.72;5014227;28;20050;-84
2022/02/20 09:17:10;;;;;;;34.83;17.02;;;;;;;11.48;57.80;93149.50;5013932;28;20461;-84
2022/02/20 09:19:36;;;;;;;38.22;16.60;;;;;;;11.77;57.41;93160.03;5014093;28;20058;-84
2022/02/20 09:22:04;;;;;;;55.85;22.60;;;;;;;11.95;56.79;93161.75;5013896;28;20050;-85
2022/02/20 09:24:30;;;;;;;64.72;27.08;;;;;;;12.09;56.27;93159.03;5013834;28;20050;-84
2022/02/20 09:26:57;;;;;;;74.05;29.92;;;;;;;12.19;55.61;93143.06;5015948;28;20065;-84
2022/02/20 09:29:24;;;;;;;50.50;20.55;;;;;;;12.29;54.67;93140.72;5015085;28;20049;-85
2022/02/20 09:31:51;;;;;;;66.75;29.60;;;;;;;12.37;54.80;93132.66;5014764;28;20062;-85
2022/02/20 09:34:20;;;;;;;50.53;20.95;;;;;;;12.50;53.43;93138.63;5014290;28;20053;-84
2022/02/20 09:36:47;;;;;;;35.05;14.52;;;;;;;12.60;53.60;93132.91;5014104;28;20084;-83
2022/02/20 09:39:14;;;;;;;17.25;7.47;;;;;;;12.58;51.86;93124.63;5013854;28;20050;-82
2022/02/20 09:41:43;;;;;;;11.70;5.50;;;;;;;12.69;52.24;93137.50;5014001;28;20099;-84
2022/02/20 09:44:10;;;;;;;12.75;5.82;;;;;;;12.74;52.23;93128.31;5013768;28;20049;-84
2022/02/20 09:46:41;;;;;;;12.75;4.57;;;;;;;12.76;52.32;93123.72;5013529;28;20045;-84
2022/02/20 09:49:08;;;;;;;9.93;3.92;;;;;;;12.73;51.80;93109.47;5012975;28;20046;-83
2022/02/20 09:51:37;;;;;;;12.43;4.50;;;;;;;13.00;52.09;93129.63;5013833;28;20414;-83
2022/02/20 09:54:04;;;;;;;24.27;10.77;;;;;;;12.99;50.14;93119.53;5013476;28;20049;-82
2022/02/20 09:56:31;;;;;;;53.38;20.08;;;;;;;13.04;51.74;93133.34;5013453;28;20046;-83
2022/02/20 09:58:59;;;;;;;52.53;18.10;;;;;;;12.90;53.22;93125.06;5013491;28;20120;-84
2022/02/20 10:01:28;;;;;;;43.05;15.30;;;;;;;12.94;53.24;93123.59;5013166;28;20058;-84
2022/02/20 10:03:55;;;;;;;48.72;15.57;;;;;;;12.75;54.39;93124.72;5013255;28;20061;-84
2022/02/20 10:06:26;;;;;;;48.83;14.30;;;;;;;12.65;54.10;93118.34;5013115;28;20491;-83
2022/02/20 10:08:56;;;;;;;36.97;12.82;;;;;;;12.83;53.77;93109.72;5013013;28;20046;-84
2022/02/20 10:11:25;;;;;;;36.03;11.55;;;;;;;13.01;53.94;93109.81;5012989;28;20056;-83
2022/02/20 10:13:53;;;;;;;42.03;12.73;;;;;;;13.12;53.69;93109.00;5013095;28;20050;-82
2022/02/20 10:16:25;;;;;;;45.65;14.02;;;;;;;13.33;54.14;93109.41;5012943;28;20057;-83
2022/02/20 10:18:53;;;;;;;30.73;9.93;;;;;;;13.23;53.27;93112.56;5013268;28;20046;-83
2022/02/20 10:21:23;;;;;;;30.25;9.77;;;;;;;13.18;52.94;93102.94;5012895;28;20517;-83
2022/02/20 10:23:50;;;;;;;24.25;9.50;;;;;;;13.28;53.01;93106.72;5012673;28;20426;-83
2022/02/20 10:26:20;;;;;;;32.85;9.90;;;;;;;13.31;52.51;93106.25;5013046;28;20100;-84
2022/02/20 10:29:05;;;;;;;31.67;9.82;;;;;;;13.47;52.35;93105.56;5012857;28;20042;-83
2022/02/20 10:31:41;;;;;;;26.67;9.02;;;;;;;13.45;51.68;93107.56;5012802;28;20100;-82
2022/02/20 10:34:09;;;;;;;23.00;9.33;;;;;;;13.21;50.32;93088.78;5012535;28;20049;-84
2022/02/20 10:36:50;;;;;;;24.73;9.10;;;;;;;13.19;52.08;93089.03;5012618;28;20053;-83
2022/02/20 10:39:18;;;;;;;22.42;8.15;;;;;;;13.54;51.25;93102.06;5012527;28;20061;-84
2022/02/20 10:41:47;;;;;;;21.35;7.85;;;;;;;13.92;52.14;93087.75;5012490;28;20058;-83
2022/02/20 10:44:14;;;;;;;20.05;7.30;;;;;;;14.16;50.58;93085.81;5012247;28;20525;-82
2022/02/20 10:46:41;;;;;;;20.95;7.07;;;;;;;14.59;49.34;93084.63;5012356;28;20405;-84
2022/02/20 10:49:08;;;;;;;15.40;5.60;;;;;;;14.88;46.31;93085.31;5012402;28;20054;-83
2022/02/20 10:51:39;;;;;;;20.70;5.68;;;;;;;15.26;46.51;93085.50;5012397;28;20045;-85
2022/02/20 10:54:06;;;;;;;11.93;4.55;;;;;;;15.17;43.11;93071.41;5010999;28;20042;-84
2022/02/20 10:56:40;;;;;;;11.93;4.32;;;;;;;15.06;44.32;93079.06;5012329;28;20046;-83
2022/02/20 10:59:09;;;;;;;9.77;3.50;;;;;;;14.84;43.63;93073.88;5012160;28;20054;-85
2022/02/20 11:01:35;;;;;;;10.52;4.40;;;;;;;14.49;44.76;93065.34;5011718;28;20556;-87
2022/02/20 11:04:05;;;;;;;8.10;4.32;;;;;;;14.60;45.52;93070.66;5011974;28;20054;-82
2022/02/20 11:06:33;;;;;;;10.65;4.78;;;;;;;14.76;45.39;93054.38;5012206;28;20490;-84
2022/02/20 11:09:01;;;;;;;12.02;4.07;;;;;;;14.42;44.48;93016.44;5012109;28;20053;-83
2022/02/20 11:11:40;;;;;;;9.05;3.83;;;;;;;15.12;44.15;93079.09;5011980;28;20061;-84
2022/02/20 11:14:10;;;;;;;9.85;4.13;;;;;;;14.88;43.00;93059.44;5011912;28;20464;-83
2022/02/20 11:16:41;;;;;;;7.22;3.03;;;;;;;15.04;43.68;93057.03;5011886;28;20100;-83
2022/02/20 11:19:09;;;;;;;9.82;3.90;;;;;;;14.91;42.84;93064.13;5011920;28;20136;-84
2022/02/20 11:21:42;;;;;;;9.63;3.30;;;;;;;14.86;42.08;93060.69;5011944;28;20060;-83
2022/02/20 11:24:10;;;;;;;8.00;4.32;;;;;;;15.18;42.53;93068.56;5011551;28;20137;-83
2022/02/20 11:26:39;;;;;;;6.15;2.90;;;;;;;15.07;43.21;93064.31;5011701;28;20135;-84